Time;durP1;ratioP1;P1;durP2;ratioP2;P2;SDS_P1;SDS_P2;PMS_P1;PMS_P2;Temp;Humidity;BMP_temperature;BMP_pressure;BME280_temperature;BME280_humidity;BME280_pressure;Samples;Min_cycle;Max_cycle;Signal;HPM_P1;HPM_P2
2020/12/06 00:01:46;;;;;;;27.50;21.60;;;3.10;99.90;;;;;;5032808;28;20989;-54
2020/12/06 00:04:19;;;;;;;25.53;20.27;;;3.10;99.90;;;;;;5033208;28;20576;-55
2020/12/06 00:06:46;;;;;;;25.40;20.10;;;3.00;99.90;;;;;;5034247;28;20522;-56
2020/12/06 00:09:15;;;;;;;24.97;19.40;;;3.30;99.90;;;;;;5032108;28;20571;-55
2020/12/06 00:11:42;;;;;;;28.03;22.07;;;3.20;99.90;;;;;;5033650;28;20483;-54
2020/12/06 00:14:10;;;;;;;25.67;20.47;;;3.20;99.90;;;;;;5043723;28;20567;-56
2020/12/06 00:16:37;;;;;;;32.27;22.20;;;3.30;99.90;;;;;;5037402;28;20472;-54
2020/12/06 00:19:05;;;;;;;26.67;20.57;;;3.10;99.90;;;;;;5025207;28;21306;-54
2020/12/06 00:21:32;;;;;;;27.67;19.70;;;3.10;99.90;;;;;;5025362;28;21035;-54
2020/12/06 00:24:00;;;;;;;33.53;23.87;;;3.20;99.90;;;;;;5026003;28;20512;-54
2020/12/06 00:26:32;;;;;;;33.93;23.80;;;3.20;99.90;;;;;;5028089;28;20579;-54
2020/12/06 00:28:59;;;;;;;31.23;22.53;;;3.30;99.90;;;;;;5055293;28;20828;-55
2020/12/06 00:31:27;;;;;;;35.53;25.17;;;3.10;99.90;;;;;;5044067;28;20993;-55
2020/12/06 00:33:54;;;;;;;30.03;23.03;;;3.30;99.90;;;;;;5045421;28;20473;-56
2020/12/06 00:36:22;;;;;;;28.43;20.87;;;3.20;99.90;;;;;;5045952;28;20470;-55
2020/12/06 00:38:50;;;;;;;24.80;19.43;;;3.00;99.90;;;;;;5046760;28;20506;-56
2020/12/06 00:41:18;;;;;;;23.97;18.63;;;3.00;99.90;;;;;;5047349;28;20892;-54
2020/12/06 00:43:45;;;;;;;25.93;17.63;;;2.90;99.90;;;;;;5046747;28;21006;-54
2020/12/06 00:46:12;;;;;;;28.17;20.87;;;2.90;99.90;;;;;;5047805;28;20468;-55
2020/12/06 00:48:39;;;;;;;25.40;20.40;;;2.90;99.90;;;;;;5047498;28;20484;-55
2020/12/06 00:51:07;;;;;;;27.23;20.13;;;3.00;99.90;;;;;;5045090;28;20491;-54
2020/12/06 00:53:42;;;;;;;25.50;18.87;;;2.90;99.90;;;;;;5045313;28;20989;-54
2020/12/06 00:56:17;;;;;;;25.13;18.77;;;2.80;99.90;;;;;;5041640;28;20850;-54
2020/12/06 00:58:46;;;;;;;24.57;18.17;;;2.90;99.90;;;;;;5031219;28;20484;-54
2020/12/06 01:01:14;;;;;;;30.13;21.47;;;2.90;99.90;;;;;;5038400;28;20629;-55
2020/12/06 01:03:41;;;;;;;36.50;23.83;;;3.20;99.90;;;;;;5064393;28;20478;-55
2020/12/06 01:06:14;;;;;;;31.70;22.33;;;3.50;99.90;;;;;;5051133;28;20949;-54
2020/12/06 01:08:42;;;;;;;37.30;26.67;;;3.50;99.90;;;;;;5070991;28;20495;-54
2020/12/06 01:11:12;;;;;;;35.00;24.67;;;3.60;99.90;;;;;;5039261;28;20501;-54
2020/12/06 01:13:40;;;;;;;36.83;27.30;;;3.80;99.90;;;;;;5010727;28;20910;-54
2020/12/06 01:16:08;;;;;;;34.13;25.50;;;3.70;99.90;;;;;;5011416;28;20465;-54
2020/12/06 01:18:36;;;;;;;30.07;20.60;;;3.40;99.90;;;;;;5015826;28;21009;-54
2020/12/06 01:21:03;;;;;;;34.07;23.20;;;3.40;99.90;;;;;;5030268;28;20532;-54
2020/12/06 01:23:31;;;;;;;41.33;28.37;;;3.50;99.90;;;;;;5028696;28;20849;-54
2020/12/06 01:25:59;;;;;;;39.03;26.80;;;3.40;99.90;;;;;;5029938;28;20479;-55
2020/12/06 01:28:27;;;;;;;34.60;25.27;;;3.30;99.90;;;;;;5053237;28;20473;-55
2020/12/06 01:30:54;;;;;;;34.60;24.20;;;3.10;99.90;;;;;;5058931;28;20487;-56
2020/12/06 01:33:21;;;;;;;31.77;23.13;;;3.20;99.90;;;;;;5070269;28;21289;-54
2020/12/06 01:35:48;;;;;;;34.33;24.63;;;3.30;99.90;;;;;;5069087;28;20600;-54
2020/12/06 01:38:15;;;;;;;34.60;24.97;;;3.20;99.90;;;;;;5061331;28;20502;-55
2020/12/06 01:40:43;;;;;;;34.80;24.77;;;3.10;99.90;;;;;;5037807;28;20491;-54
2020/12/06 01:43:11;;;;;;;32.60;22.73;;;3.00;99.90;;;;;;5030242;28;20472;-54
2020/12/06 01:45:40;;;;;;;33.87;23.20;;;2.90;99.90;;;;;;5030491;28;20545;-55
2020/12/06 01:48:09;;;;;;;32.17;23.50;;;2.90;99.90;;;;;;5030381;28;20535;-54
2020/12/06 01:50:38;;;;;;;29.43;22.07;;;2.80;99.90;;;;;;5029421;28;20552;-55
2020/12/06 01:53:06;;;;;;;26.63;20.33;;;2.80;99.90;;;;;;5029301;28;20562;-56
2020/12/06 01:55:34;;;;;;;30.50;22.27;;;2.90;99.90;;;;;;5030180;28;21079;-54
2020/12/06 01:58:04;;;;;;;27.03;21.03;;;3.20;99.90;;;;;;5029574;28;20513;-54
2020/12/06 02:00:33;;;;;;;26.87;19.60;;;3.00;99.90;;;;;;5031643;28;20471;-55
2020/12/06 02:03:01;;;;;;;24.27;19.23;;;2.90;99.90;;;;;;5068431;28;20554;-56
2020/12/06 02:05:28;;;;;;;24.13;18.47;;;2.90;99.90;;;;;;5069308;28;20996;-55
2020/12/06 02:07:57;;;;;;;21.67;17.80;;;2.80;99.90;;;;;;5020998;28;20509;-56
2020/12/06 02:10:25;;;;;;;21.70;17.40;;;2.80;99.90;;;;;;5015090;28;20541;-54
2020/12/06 02:12:55;;;;;;;23.03;17.97;;;2.80;99.90;;;;;;5049649;28;20514;-55
2020/12/06 02:15:24;;;;;;;24.93;19.00;;;2.90;99.90;;;;;;5049818;28;20530;-56
2020/12/06 02:17:52;;;;;;;25.50;18.77;;;2.90;99.90;;;;;;5050008;28;20501;-55
2020/12/06 02:20:21;;;;;;;23.03;18.73;;;3.00;99.90;;;;;;5048626;28;20836;-54
2020/12/06 02:22:48;;;;;;;19.40;15.53;;;3.10;99.90;;;;;;5043857;28;21061;-54
2020/12/06 02:25:15;;;;;;;26.57;20.50;;;3.10;99.90;;;;;;5039949;28;20483;-54
2020/12/06 02:27:43;;;;;;;22.17;18.40;;;3.10;99.90;;;;;;5046781;28;20960;-54
2020/12/06 02:30:12;;;;;;;23.13;18.43;;;3.00;99.90;;;;;;5048110;28;20934;-54
2020/12/06 02:32:39;;;;;;;21.97;17.97;;;2.90;99.90;;;;;;5049011;28;20532;-55
2020/12/06 02:35:06;;;;;;;21.67;17.33;;;2.80;99.90;;;;;;5048951;28;20534;-54
2020/12/06 02:37:34;;;;;;;22.13;17.67;;;2.80;99.90;;;;;;5029333;28;20467;-54
2020/12/06 02:40:02;;;;;;;24.97;17.73;;;2.80;99.90;;;;;;5041723;28;20491;-54
2020/12/06 02:42:29;;;;;;;25.40;17.80;;;2.80;99.90;;;;;;5048712;28;20542;-55
2020/12/06 02:44:57;;;;;;;25.30;19.53;;;2.80;99.90;;;;;;5047569;28;20503;-55
2020/12/06 02:47:24;;;;;;;29.63;21.37;;;2.80;99.90;;;;;;5035903;28;20519;-55
2020/12/06 02:49:51;;;;;;;27.53;20.53;;;2.80;99.90;;;;;;5028969;28;21061;-54
2020/12/06 02:52:19;;;;;;;27.83;21.13;;;2.80;99.90;;;;;;5028001;28;20482;-54
2020/12/06 02:54:48;;;;;;;28.23;21.03;;;2.80;99.90;;;;;;5037027;28;20511;-54
2020/12/06 02:57:15;;;;;;;26.00;21.03;;;2.80;99.90;;;;;;5052809;28;20517;-55
2020/12/06 02:59:43;;;;;;;26.10;20.47;;;2.80;99.90;;;;;;5052434;28;20567;-54
2020/12/06 03:02:10;;;;;;;32.30;23.13;;;2.90;99.90;;;;;;5068440;28;20896;-56
2020/12/06 03:04:38;;;;;;;27.57;20.07;;;3.00;99.90;;;;;;5068443;28;20470;-55
2020/12/06 03:07:05;;;;;;;27.30;19.90;;;3.00;99.90;;;;;;5066921;28;21058;-55
2020/12/06 03:09:32;;;;;;;33.40;23.03;;;3.10;99.90;;;;;;5033980;28;20523;-55
2020/12/06 03:12:01;;;;;;;32.63;22.27;;;3.10;99.90;;;;;;5028461;28;20764;-56
2020/12/06 03:14:29;;;;;;;41.10;27.37;;;3.10;99.90;;;;;;5028403;28;20475;-56
2020/12/06 03:16:56;;;;;;;36.80;26.27;;;3.10;99.90;;;;;;5028096;28;20531;-55
2020/12/06 03:19:24;;;;;;;39.23;26.93;;;3.00;99.90;;;;;;5044870;28;20966;-56
2020/12/06 03:21:51;;;;;;;36.60;26.27;;;2.90;99.90;;;;;;5046962;28;20571;-54
2020/12/06 03:24:18;;;;;;;37.10;26.27;;;2.90;99.90;;;;;;5046760;28;20477;-55
2020/12/06 03:26:46;;;;;;;35.67;25.43;;;2.90;99.90;;;;;;5065305;28;20494;-54
2020/12/06 03:29:14;;;;;;;32.67;23.17;;;2.90;99.90;;;;;;5041572;28;20962;-54
2020/12/06 03:31:42;;;;;;;34.20;23.37;;;3.10;99.90;;;;;;5047900;28;21055;-54
2020/12/06 03:34:09;;;;;;;34.43;24.63;;;3.20;99.90;;;;;;5047939;28;20474;-55
2020/12/06 03:36:37;;;;;;;39.37;27.43;;;3.10;99.90;;;;;;5048290;28;20517;-55
2020/12/06 03:39:05;;;;;;;37.03;23.57;;;3.20;99.90;;;;;;5047948;28;20498;-56
2020/12/06 03:41:33;;;;;;;40.07;28.63;;;3.40;99.90;;;;;;5047965;28;20999;-54
2020/12/06 03:44:00;;;;;;;40.70;28.13;;;3.30;99.90;;;;;;5047403;28;20570;-54
2020/12/06 03:46:29;;;;;;;35.70;26.40;;;3.10;99.90;;;;;;5048190;28;20548;-54
2020/12/06 03:48:57;;;;;;;34.30;22.67;;;3.10;99.90;;;;;;5048200;28;20529;-54
2020/12/06 03:51:24;;;;;;;40.17;27.90;;;3.20;99.90;;;;;;5046495;28;20485;-54
2020/12/06 03:53:51;;;;;;;38.40;26.47;;;3.10;99.90;;;;;;5050991;28;20521;-54
2020/12/06 03:56:19;;;;;;;41.07;27.07;;;3.30;99.90;;;;;;5044516;28;20477;-56
2020/12/06 03:58:46;;;;;;;40.93;27.87;;;3.40;99.90;;;;;;5036250;28;20556;-55
2020/12/06 04:01:13;;;;;;;36.97;26.30;;;3.20;99.90;;;;;;5017120;28;20475;-55
2020/12/06 04:03:41;;;;;;;41.60;27.10;;;3.30;99.90;;;;;;5027797;28;20572;-54
2020/12/06 04:06:09;;;;;;;35.73;25.73;;;3.20;99.90;;;;;;5028409;28;20484;-55
2020/12/06 04:08:36;;;;;;;34.53;24.00;;;3.20;99.90;;;;;;5039910;28;20470;-54
2020/12/06 04:11:05;;;;;;;32.57;23.37;;;3.10;99.90;;;;;;5047739;28;21138;-55
2020/12/06 04:13:33;;;;;;;34.37;26.10;;;3.10;99.90;;;;;;5047622;28;20565;-54
2020/12/06 04:16:00;;;;;;;36.53;25.90;;;3.20;99.90;;;;;;5048834;28;20553;-55
2020/12/06 04:18:27;;;;;;;37.97;26.20;;;3.20;99.90;;;;;;5042277;28;20579;-54
2020/12/06 04:20:55;;;;;;;34.27;25.13;;;3.20;99.90;;;;;;5046244;28;20507;-54
2020/12/06 04:23:22;;;;;;;36.70;25.73;;;3.20;99.90;;;;;;5047561;28;20556;-54
2020/12/06 04:25:51;;;;;;;34.13;25.63;;;3.20;99.90;;;;;;5031089;28;20481;-55
2020/12/06 04:28:18;;;;;;;34.47;24.57;;;3.20;99.90;;;;;;5029377;28;20473;-54
2020/12/06 04:30:45;;;;;;;35.03;25.43;;;3.20;99.90;;;;;;5036603;28;20593;-55
2020/12/06 04:33:12;;;;;;;40.63;26.53;;;3.20;99.90;;;;;;5051036;28;21056;-54
2020/12/06 04:35:40;;;;;;;43.60;28.13;;;3.50;99.90;;;;;;5050388;28;20515;-54
2020/12/06 04:38:08;;;;;;;40.97;28.97;;;3.50;99.90;;;;;;5050626;28;20751;-54
2020/12/06 04:40:35;;;;;;;40.00;29.23;;;3.30;99.90;;;;;;5049379;28;20484;-54
2020/12/06 04:43:03;;;;;;;40.83;28.50;;;3.30;99.90;;;;;;5050488;28;20510;-54
2020/12/06 04:45:31;;;;;;;39.33;27.53;;;3.20;99.90;;;;;;5049906;28;20537;-56
2020/12/06 04:48:05;;;;;;;35.10;26.43;;;3.20;99.90;;;;;;5049354;28;20510;-54
2020/12/06 04:50:34;;;;;;;37.93;26.90;;;3.10;99.90;;;;;;5043446;28;20917;-54
2020/12/06 04:53:05;;;;;;;35.63;26.13;;;3.10;99.90;;;;;;5028136;28;20488;-55
2020/12/06 04:55:35;;;;;;;37.87;26.30;;;3.10;99.90;;;;;;5028999;28;20522;-54
2020/12/06 04:58:05;;;;;;;33.23;25.20;;;3.20;99.90;;;;;;5029810;28;20774;-55
2020/12/06 05:00:34;;;;;;;34.27;25.90;;;3.20;99.90;;;;;;5032275;28;21008;-56
2020/12/06 05:03:08;;;;;;;36.53;25.57;;;3.20;99.90;;;;;;5049556;28;20475;-54
2020/12/06 05:05:38;;;;;;;35.30;25.50;;;3.50;99.90;;;;;;5049553;28;20506;-54
2020/12/06 05:08:08;;;;;;;39.63;27.57;;;3.50;99.90;;;;;;5049576;28;20568;-54
2020/12/06 05:10:39;;;;;;;40.67;28.23;;;3.40;99.90;;;;;;5048121;28;20530;-55
2020/12/06 05:13:08;;;;;;;37.03;26.33;;;3.40;99.90;;;;;;5048534;28;20958;-54
2020/12/06 05:15:36;;;;;;;36.40;25.77;;;3.30;99.90;;;;;;5047217;28;20569;-54
2020/12/06 05:18:03;;;;;;;38.30;26.50;;;3.30;99.90;;;;;;5047910;28;20956;-55
2020/12/06 05:20:31;;;;;;;37.40;26.77;;;3.40;99.90;;;;;;5038588;28;20541;-54
2020/12/06 05:22:59;;;;;;;39.40;27.50;;;3.40;99.90;;;;;;5027475;28;20511;-56
2020/12/06 05:25:29;;;;;;;41.67;27.83;;;3.30;99.90;;;;;;5030062;28;20580;-56
2020/12/06 05:27:57;;;;;;;37.43;27.67;;;3.40;99.90;;;;;;5030460;28;20483;-55
2020/12/06 05:30:25;;;;;;;35.87;25.40;;;3.30;99.90;;;;;;5032088;28;20838;-54
2020/12/06 05:32:52;;;;;;;34.30;23.97;;;3.30;99.90;;;;;;5049389;28;20485;-54
2020/12/06 05:35:20;;;;;;;38.90;26.93;;;3.40;99.90;;;;;;5049965;28;20508;-56
2020/12/06 05:37:48;;;;;;;38.57;27.10;;;3.30;99.90;;;;;;5050071;28;20841;-56
2020/12/06 05:40:17;;;;;;;36.37;26.90;;;3.40;99.90;;;;;;5049371;28;20991;-55
2020/12/06 05:42:46;;;;;;;36.50;25.83;;;3.40;99.90;;;;;;5048466;28;20476;-54
2020/12/06 05:45:19;;;;;;;36.70;26.97;;;3.30;99.90;;;;;;5049174;28;20480;-54
2020/12/06 05:47:47;;;;;;;37.73;26.37;;;3.30;99.90;;;;;;5051669;28;20490;-55
2020/12/06 05:50:14;;;;;;;34.80;25.73;;;3.30;99.90;;;;;;5048674;28;20483;-56
2020/12/06 05:52:41;;;;;;;42.10;26.50;;;3.40;99.90;;;;;;5044367;28;20521;-54
2020/12/06 05:55:09;;;;;;;39.43;27.40;;;3.30;99.90;;;;;;5010965;28;20522;-56
2020/12/06 05:57:46;;;;;;;38.83;26.20;;;3.30;99.90;;;;;;5010718;28;20558;-55
2020/12/06 06:00:14;;;;;;;36.90;26.10;;;3.30;99.90;;;;;;5010686;28;20552;-54
2020/12/06 06:02:44;;;;;;;37.00;27.40;;;3.30;99.90;;;;;;5044340;28;20540;-54
2020/12/06 06:05:17;;;;;;;38.87;25.43;;;3.30;99.90;;;;;;5047537;28;20551;-54
2020/12/06 06:07:48;;;;;;;41.57;28.50;;;3.60;99.90;;;;;;5049561;28;20883;-54
2020/12/06 06:10:19;;;;;;;38.23;28.10;;;3.40;99.90;;;;;;5049254;28;20475;-56
2020/12/06 06:12:52;;;;;;;42.17;28.00;;;3.40;99.90;;;;;;5048600;28;21019;-54
2020/12/06 06:15:21;;;;;;;39.37;26.97;;;3.30;99.90;;;;;;5044484;28;20513;-55
2020/12/06 06:17:49;;;;;;;38.23;27.40;;;3.30;99.90;;;;;;5048800;28;20870;-56
2020/12/06 06:20:18;;;;;;;40.93;28.77;;;3.30;99.90;;;;;;5048721;28;20501;-54
2020/12/06 06:22:50;;;;;;;38.27;26.80;;;3.30;99.90;;;;;;5048533;28;20509;-55
2020/12/06 06:25:17;;;;;;;36.23;27.47;;;3.30;99.90;;;;;;5032203;28;20479;-56
2020/12/06 06:27:45;;;;;;;38.13;27.00;;;3.30;99.90;;;;;;5029200;28;20544;-55
2020/12/06 06:30:12;;;;;;;38.87;28.10;;;3.30;99.90;;;;;;5029503;28;20547;-54
2020/12/06 06:32:40;;;;;;;41.77;28.43;;;3.30;99.90;;;;;;5048187;28;20584;-55
2020/12/06 06:35:10;;;;;;;41.33;28.90;;;3.30;99.90;;;;;;5049084;28;20480;-55
2020/12/06 06:37:38;;;;;;;42.87;29.83;;;3.40;99.90;;;;;;5048850;28;21004;-55
2020/12/06 06:40:08;;;;;;;40.23;28.10;;;3.40;99.90;;;;;;5049042;28;21054;-54
2020/12/06 06:42:36;;;;;;;42.23;29.13;;;3.40;99.90;;;;;;5048276;28;21027;-56
2020/12/06 06:45:06;;;;;;;42.03;30.00;;;3.40;99.90;;;;;;5058082;28;20479;-56
2020/12/06 06:47:37;;;;;;;47.93;30.17;;;3.40;99.90;;;;;;5032906;28;20534;-54
2020/12/06 06:50:07;;;;;;;44.60;29.17;;;3.50;99.90;;;;;;5049675;28;20515;-55
2020/12/06 06:52:35;;;;;;;48.07;32.63;;;3.50;99.90;;;;;;5055859;28;20489;-54
2020/12/06 06:55:05;;;;;;;49.33;33.27;;;3.50;99.90;;;;;;5039582;28;20886;-54
2020/12/06 06:57:33;;;;;;;50.77;32.53;;;3.50;99.90;;;;;;5045223;28;20887;-54
2020/12/06 07:00:01;;;;;;;46.83;31.03;;;3.50;99.90;;;;;;5047083;28;20833;-56
2020/12/06 07:02:36;;;;;;;45.50;32.23;;;3.60;99.90;;;;;;5044000;28;20489;-54
2020/12/06 07:05:08;;;;;;;47.30;31.67;;;3.50;99.90;;;;;;5046659;28;20532;-55
2020/12/06 07:07:53;;;;;;;41.93;30.23;;;3.50;99.90;;;;;;5047620;28;20506;-55
2020/12/06 07:10:23;;;;;;;42.60;30.57;;;3.50;99.90;;;;;;5045232;28;20502;-54
2020/12/06 07:12:52;;;;;;;42.17;29.17;;;3.50;99.90;;;;;;5031432;28;20906;-55
2020/12/06 07:15:21;;;;;;;40.20;29.40;;;3.40;99.90;;;;;;5026252;28;20472;-55
2020/12/06 07:17:50;;;;;;;41.07;28.83;;;3.40;99.90;;;;;;5039131;28;20522;-54
2020/12/06 07:20:20;;;;;;;38.70;27.70;;;3.50;99.90;;;;;;5026732;28;20492;-54
2020/12/06 07:22:48;;;;;;;40.27;29.33;;;3.50;99.90;;;;;;5027081;28;20995;-56
2020/12/06 07:25:17;;;;;;;41.73;29.27;;;3.50;99.90;;;;;;5028288;28;20467;-54
2020/12/06 07:27:45;;;;;;;41.33;29.07;;;3.50;99.90;;;;;;5028450;28;21162;-54
2020/12/06 07:30:14;;;;;;;42.97;29.13;;;3.50;99.90;;;;;;5044941;28;20572;-54
2020/12/06 07:32:42;;;;;;;46.50;30.67;;;3.50;99.90;;;;;;5046899;28;20848;-56
2020/12/06 07:35:11;;;;;;;44.47;30.20;;;3.50;99.90;;;;;;5047322;28;21037;-54
2020/12/06 07:37:40;;;;;;;45.10;32.37;;;3.50;99.90;;;;;;5047068;28;20507;-54
2020/12/06 07:40:09;;;;;;;42.70;30.50;;;3.50;99.90;;;;;;5046973;28;20475;-55
2020/12/06 07:42:37;;;;;;;49.83;31.57;;;3.50;99.90;;;;;;5055993;28;20518;-54
2020/12/06 07:45:07;;;;;;;46.60;31.00;;;3.50;99.90;;;;;;5039854;28;20477;-56
2020/12/06 07:47:34;;;;;;;49.43;32.80;;;3.50;99.90;;;;;;5044366;28;20556;-54
2020/12/06 07:50:05;;;;;;;49.23;32.23;;;3.50;99.90;;;;;;5028346;28;20514;-54
2020/12/06 07:52:35;;;;;;;45.43;31.70;;;3.60;99.90;;;;;;5026851;28;20889;-54
2020/12/06 07:55:06;;;;;;;48.60;32.67;;;3.50;99.90;;;;;;5026278;28;20541;-55
2020/12/06 07:57:48;;;;;;;48.10;32.70;;;3.60;99.90;;;;;;5027444;28;20485;-54
2020/12/06 08:00:19;;;;;;;48.40;32.93;;;3.60;99.90;;;;;;5028575;28;20500;-54
2020/12/06 08:02:49;;;;;;;51.03;33.13;;;3.60;99.90;;;;;;5049360;28;20536;-55
2020/12/06 08:05:20;;;;;;;50.17;32.77;;;3.60;99.90;;;;;;5052185;28;20482;-55
2020/12/06 08:07:57;;;;;;;53.43;35.60;;;3.80;99.90;;;;;;5031181;28;20896;-54
2020/12/06 08:10:31;;;;;;;50.17;32.33;;;3.70;99.90;;;;;;5034477;28;20564;-56
2020/12/06 08:12:59;;;;;;;56.53;36.93;;;3.80;99.90;;;;;;5046195;28;20519;-55
2020/12/06 08:15:28;;;;;;;54.83;36.20;;;3.80;99.90;;;;;;5015549;28;20479;-54
2020/12/06 08:17:57;;;;;;;55.90;37.00;;;3.80;99.90;;;;;;5028856;28;20858;-55
2020/12/06 08:20:26;;;;;;;57.57;36.30;;;3.80;99.90;;;;;;5025754;28;20570;-54
2020/12/06 08:22:56;;;;;;;54.07;34.27;;;3.80;99.90;;;;;;5027986;28;21027;-55
2020/12/06 08:25:27;;;;;;;52.30;32.40;;;3.80;99.90;;;;;;5028365;28;20489;-55
2020/12/06 08:27:56;;;;;;;59.60;37.87;;;3.80;99.90;;;;;;5028638;28;20574;-56
2020/12/06 08:30:28;;;;;;;59.37;37.10;;;3.90;99.90;;;;;;5031016;28;20484;-56
2020/12/06 08:32:57;;;;;;;61.60;38.67;;;3.80;99.90;;;;;;5049483;28;20478;-54
2020/12/06 08:35:41;;;;;;;60.47;36.53;;;3.90;99.90;;;;;;5046896;28;20493;-54
2020/12/06 08:38:20;;;;;;;55.20;36.03;;;3.90;99.90;;;;;;5047470;28;20559;-54
2020/12/06 08:41:06;;;;;;;62.33;38.43;;;3.90;99.90;;;;;;5025322;28;20577;-55
2020/12/06 08:43:44;;;;;;;65.83;38.73;;;4.00;99.90;;;;;;5039257;28;20473;-56
2020/12/06 08:46:13;;;;;;;66.27;38.90;;;4.00;99.90;;;;;;5028543;28;20885;-55
2020/12/06 08:48:40;;;;;;;60.20;36.93;;;4.00;99.90;;;;;;5028544;28;21103;-55
2020/12/06 08:51:24;;;;;;;65.87;39.83;;;4.10;99.90;;;;;;5028595;28;20505;-54
2020/12/06 08:53:52;;;;;;;67.03;40.23;;;4.10;99.90;;;;;;5023465;28;20531;-54
2020/12/06 08:56:32;;;;;;;72.20;40.93;;;4.30;99.90;;;;;;5027733;28;21335;-57
2020/12/06 08:59:06;;;;;;;66.60;38.43;;;4.20;99.90;;;;;;5029499;28;20990;-56
2020/12/06 09:01:34;;;;;;;67.23;39.53;;;4.20;99.90;;;;;;5028224;28;20473;-54
2020/12/06 09:04:02;;;;;;;76.10;42.47;;;4.30;99.90;;;;;;5028330;28;20491;-54
2020/12/06 09:06:30;;;;;;;76.63;41.57;;;4.30;99.90;;;;;;5027524;28;20494;-54
2020/12/06 09:08:57;;;;;;;77.87;43.00;;;4.30;99.90;;;;;;5025910;28;20994;-55
2020/12/06 09:11:24;;;;;;;79.80;43.03;;;4.30;99.90;;;;;;5025944;28;21032;-55
2020/12/06 09:13:51;;;;;;;74.90;41.77;;;4.30;99.90;;;;;;5024559;28;20901;-55
2020/12/06 09:16:20;;;;;;;72.70;41.47;;;4.30;99.90;;;;;;5025689;28;20570;-54
2020/12/06 09:18:48;;;;;;;77.20;41.33;;;4.40;99.90;;;;;;5025416;28;20491;-55
2020/12/06 09:21:15;;;;;;;83.00;43.93;;;4.40;99.90;;;;;;5041386;28;21224;-54
2020/12/06 09:23:42;;;;;;;74.80;41.20;;;4.50;99.90;;;;;;5034778;28;20537;-54
2020/12/06 09:26:10;;;;;;;81.43;44.83;;;4.60;99.90;;;;;;5026905;28;20505;-55
2020/12/06 09:28:38;;;;;;;80.70;42.60;;;4.50;99.90;;;;;;5028258;28;20525;-56
2020/12/06 09:31:07;;;;;;;75.87;42.80;;;4.60;99.90;;;;;;5037694;28;20497;-54
2020/12/06 09:33:35;;;;;;;82.83;43.37;;;4.60;99.90;;;;;;5049811;28;20880;-56
2020/12/06 09:36:04;;;;;;;83.20;44.27;;;4.60;99.90;;;;;;5049112;28;21036;-54
2020/12/06 09:38:31;;;;;;;84.80;43.97;;;4.70;99.90;;;;;;5047038;28;20509;-54
2020/12/06 09:40:58;;;;;;;80.57;42.70;;;4.70;99.90;;;;;;5039172;28;20487;-54
2020/12/06 09:43:26;;;;;;;85.03;43.77;;;4.70;99.90;;;;;;5046761;28;20475;-54
2020/12/06 09:45:54;;;;;;;82.47;41.70;;;4.70;99.90;;;;;;5030249;28;20564;-54
2020/12/06 09:48:22;;;;;;;84.73;43.47;;;4.70;99.90;;;;;;5030571;28;20993;-55
2020/12/06 09:50:51;;;;;;;80.70;44.03;;;4.80;99.90;;;;;;5029408;28;20483;-56
2020/12/06 09:53:18;;;;;;;84.00;42.37;;;4.70;99.90;;;;;;5029387;28;20474;-55
2020/12/06 09:55:45;;;;;;;87.80;44.30;;;4.80;99.90;;;;;;5028868;28;20483;-56
2020/12/06 09:58:13;;;;;;;84.07;44.53;;;4.90;99.90;;;;;;5029053;28;20773;-54
2020/12/06 10:00:42;;;;;;;89.30;45.13;;;4.80;99.90;;;;;;5031892;28;20481;-54
2020/12/06 10:03:09;;;;;;;90.07;46.13;;;4.80;99.90;;;;;;5047935;28;21065;-55
2020/12/06 10:05:36;;;;;;;87.47;44.03;;;4.80;99.90;;;;;;5050537;28;20563;-55
2020/12/06 10:08:05;;;;;;;85.20;45.13;;;4.80;99.90;;;;;;5041120;28;20494;-54
2020/12/06 10:10:32;;;;;;;97.40;45.27;;;4.90;99.90;;;;;;5029425;28;20902;-55
2020/12/06 10:12:59;;;;;;;97.93;46.20;;;5.00;99.90;;;;;;5029828;28;20522;-57
2020/12/06 10:15:28;;;;;;;98.00;45.97;;;5.00;99.90;;;;;;5029261;28;20479;-54
2020/12/06 10:17:55;;;;;;;101.17;46.03;;;5.00;99.90;;;;;;5029063;28;20505;-54
2020/12/06 10:20:22;;;;;;;99.03;46.00;;;5.00;99.90;;;;;;5027187;28;20487;-54
2020/12/06 10:22:49;;;;;;;98.83;45.03;;;5.00;99.90;;;;;;5029561;28;20543;-54
2020/12/06 10:25:18;;;;;;;102.37;44.70;;;5.10;99.90;;;;;;5027951;28;20896;-56
2020/12/06 10:27:45;;;;;;;102.50;48.87;;;5.30;99.90;;;;;;5026750;28;21024;-56
2020/12/06 10:30:13;;;;;;;101.63;45.50;;;5.20;99.90;;;;;;5029999;28;20505;-55
2020/12/06 10:32:40;;;;;;;113.90;47.53;;;5.30;99.90;;;;;;5047852;28;20562;-54
2020/12/06 10:35:07;;;;;;;106.13;44.20;;;5.30;99.90;;;;;;5048218;28;20476;-54
2020/12/06 10:37:35;;;;;;;116.77;49.03;;;5.30;99.90;;;;;;5040810;28;20475;-54
2020/12/06 10:40:04;;;;;;;112.40;49.17;;;5.40;99.90;;;;;;5051078;28;21023;-56
2020/12/06 10:42:32;;;;;;;129.10;51.10;;;5.30;99.90;;;;;;5019186;28;20598;-54
2020/12/06 10:45:00;;;;;;;109.10;47.63;;;5.20;99.90;;;;;;5015349;28;20519;-56
2020/12/06 10:47:32;;;;;;;115.40;47.60;;;5.30;99.90;;;;;;5016092;28;20482;-56
2020/12/06 10:50:00;;;;;;;105.27;47.53;;;5.20;99.90;;;;;;5016410;28;20812;-54
2020/12/06 10:52:31;;;;;;;113.60;50.03;;;5.20;99.90;;;;;;5015226;28;20493;-54
2020/12/06 10:54:58;;;;;;;116.33;48.53;;;5.20;99.90;;;;;;5016318;28;20490;-54
2020/12/06 10:57:25;;;;;;;107.33;48.23;;;5.30;99.90;;;;;;5014814;28;20592;-57
2020/12/06 10:59:54;;;;;;;105.77;47.70;;;5.40;99.90;;;;;;5016882;28;20498;-55
2020/12/06 11:02:21;;;;;;;107.67;48.77;;;5.40;99.90;;;;;;5033954;28;20907;-54
2020/12/06 11:04:49;;;;;;;105.10;48.60;;;5.50;99.90;;;;;;5035913;28;20769;-56
2020/12/06 11:07:17;;;;;;;99.40;48.20;;;5.50;99.90;;;;;;5035255;28;21085;-55
2020/12/06 11:09:44;;;;;;;106.13;47.03;;;5.40;99.90;;;;;;5036623;28;20540;-54
2020/12/06 11:12:12;;;;;;;97.83;47.27;;;5.50;99.90;;;;;;5036439;28;20493;-56
2020/12/06 11:14:39;;;;;;;93.07;45.87;;;5.40;99.90;;;;;;5035975;28;20482;-55
2020/12/06 11:17:07;;;;;;;97.57;47.27;;;5.50;99.90;;;;;;5034495;28;22060;-56
2020/12/06 11:19:35;;;;;;;91.57;44.67;;;5.50;99.90;;;;;;5035316;28;20481;-54
2020/12/06 11:22:02;;;;;;;100.50;47.57;;;5.60;99.90;;;;;;5037240;28;21022;-55
2020/12/06 11:24:32;;;;;;;102.80;47.07;;;5.60;99.90;;;;;;5034582;28;20990;-56
2020/12/06 11:26:59;;;;;;;100.20;46.77;;;5.80;99.90;;;;;;5034431;28;20965;-56
2020/12/06 11:29:28;;;;;;;111.10;48.47;;;5.80;99.90;;;;;;5037058;28;20485;-54
2020/12/06 11:31:56;;;;;;;105.97;47.60;;;5.90;99.90;;;;;;5035866;28;20877;-54
2020/12/06 11:34:25;;;;;;;110.37;48.97;;;5.80;99.90;;;;;;5023299;28;20240;-56
2020/12/06 11:36:52;;;;;;;103.63;46.93;;;5.70;99.90;;;;;;5034863;28;20494;-55
2020/12/06 11:39:20;;;;;;;95.13;46.87;;;5.70;99.90;;;;;;5036880;28;20479;-54
2020/12/06 11:41:47;;;;;;;96.00;44.33;;;5.70;99.90;;;;;;5035394;28;20870;-56
2020/12/06 11:44:14;;;;;;;108.53;50.07;;;5.70;99.90;;;;;;5036083;28;20478;-54
2020/12/06 11:46:46;;;;;;;97.20;44.57;;;5.80;99.90;;;;;;5035784;28;20640;-55
2020/12/06 11:49:13;;;;;;;110.03;49.77;;;5.80;99.90;;;;;;5035319;28;20898;-54
2020/12/06 11:51:41;;;;;;;102.93;48.40;;;6.10;99.90;;;;;;5035406;28;20329;-55
2020/12/06 11:54:10;;;;;;;98.40;46.47;;;6.00;99.90;;;;;;5028811;28;20475;-54
2020/12/06 11:56:38;;;;;;;102.03;47.77;;;5.90;99.90;;;;;;5016352;28;20853;-54
2020/12/06 11:59:05;;;;;;;100.20;47.27;;;5.80;99.90;;;;;;5011071;28;20609;-54
2020/12/06 12:01:33;;;;;;;99.53;45.40;;;5.90;99.90;;;;;;5014312;28;20490;-54
2020/12/06 12:04:01;;;;;;;108.60;48.30;;;5.90;99.90;;;;;;5014813;28;20557;-54
2020/12/06 12:06:28;;;;;;;99.97;47.87;;;5.90;99.90;;;;;;5014924;28;21072;-54
2020/12/06 12:08:56;;;;;;;111.77;49.70;;;6.00;99.90;;;;;;5013004;28;20279;-54
2020/12/06 12:11:23;;;;;;;106.80;48.23;;;6.00;99.90;;;;;;5015212;28;20902;-54
2020/12/06 12:13:51;;;;;;;102.00;47.17;;;6.00;99.90;;;;;;5028141;28;20274;-54
2020/12/06 12:16:18;;;;;;;105.43;49.37;;;5.90;99.90;;;;;;5015000;28;20280;-54
2020/12/06 12:18:45;;;;;;;95.60;47.30;;;6.00;99.90;;;;;;5021367;28;20267;-54
2020/12/06 12:21:13;;;;;;;90.07;46.63;;;6.00;99.90;;;;;;5036243;28;20236;-55
2020/12/06 12:23:40;;;;;;;93.10;45.57;;;6.00;99.90;;;;;;5034218;28;20396;-54
2020/12/06 12:26:08;;;;;;;99.37;47.57;;;6.00;99.90;;;;;;5024753;28;20338;-54
2020/12/06 12:28:35;;;;;;;94.07;45.10;;;6.00;99.90;;;;;;5013789;28;20339;-54
2020/12/06 12:31:03;;;;;;;91.43;46.47;;;6.00;99.90;;;;;;5019752;28;20498;-54
2020/12/06 12:33:30;;;;;;;89.83;45.83;;;6.00;99.90;;;;;;5016248;28;20294;-54
2020/12/06 12:35:57;;;;;;;91.63;45.60;;;5.90;99.90;;;;;;5015088;28;20321;-54
2020/12/06 12:38:25;;;;;;;94.67;45.63;;;5.90;99.90;;;;;;5015206;28;20502;-54
2020/12/06 12:40:52;;;;;;;88.83;46.10;;;6.00;99.90;;;;;;5016310;28;20268;-54
2020/12/06 12:43:20;;;;;;;83.40;44.70;;;5.90;99.90;;;;;;5016220;28;20998;-54